Time;durP1;ratioP1;P1;durP2;ratioP2;P2;SDS_P1;SDS_P2;PMS_P1;PMS_P2;Temp;Humidity;BMP_temperature;BMP_pressure;BME280_temperature;BME280_humidity;BME280_pressure;Samples;Min_cycle;Max_cycle;Signal;HPM_P1;HPM_P2
2022/07/11 00:01:37;;;;;;;8.63;1.90;;;;;;;13.00;100.00;100807.64;5160063;57;1141380;-67
2022/07/11 00:06:43;;;;;;;4.47;1.50;;;;;;;12.98;100.00;100808.77;5160194;57;1140552;-67
2022/07/11 00:11:49;;;;;;;8.07;1.53;;;;;;;12.98;100.00;100806.11;5160091;57;1141424;-67
2022/07/11 00:16:55;;;;;;;5.47;1.70;;;;;;;12.98;100.00;100795.50;5160077;57;1141396;-67
2022/07/11 00:22:01;;;;;;;5.57;1.83;;;;;;;13.00;100.00;100801.49;5160062;57;1141362;-68
2022/07/11 00:27:07;;;;;;;10.93;2.07;;;;;;;12.99;100.00;100795.82;5162065;56;1138959;-67
2022/07/11 00:32:13;;;;;;;5.50;2.10;;;;;;;12.99;100.00;100794.50;5246795;56;1141250;-67
2022/07/11 00:37:19;;;;;;;6.70;2.20;;;;;;;12.94;100.00;100789.59;5246804;56;1139058;-69
2022/07/11 00:42:25;;;;;;;9.77;2.03;;;;;;;12.86;100.00;100781.41;5246386;56;1139028;-67
2022/07/11 00:47:31;;;;;;;11.97;1.57;;;;;;;12.84;100.00;100786.48;5246149;56;1139345;-67
2022/07/11 00:52:37;;;;;;;8.87;1.83;;;;;;;12.77;100.00;100779.52;5246766;56;1141087;-67
2022/07/11 00:57:43;;;;;;;3.60;1.45;;;;;;;12.72;100.00;100773.74;5173265;56;1139001;-67
2022/07/11 01:02:49;;;;;;;4.93;1.50;;;;;;;12.68;100.00;100773.14;5159273;57;1139099;-67
2022/07/11 01:07:55;;;;;;;11.17;1.57;;;;;;;12.64;100.00;100773.06;5160083;57;1139054;-66
2022/07/11 01:13:01;;;;;;;4.23;1.70;;;;;;;12.62;100.00;100767.03;5136263;57;1141151;-68
2022/07/11 01:18:08;;;;;;;9.20;1.97;;;;;;;12.56;100.00;100762.22;5131034;57;1139374;-67
2022/07/11 01:23:14;;;;;;;2.90;1.30;;;;;;;12.51;100.00;100764.42;5131067;57;1139176;-67
2022/07/11 01:28:20;;;;;;;8.13;1.57;;;;;;;12.42;100.00;100749.24;5130993;57;1139069;-67
2022/07/11 01:33:25;;;;;;;5.17;1.33;;;;;;;12.36;100.00;100764.34;5131055;57;1138928;-67
2022/07/11 01:38:31;;;;;;;10.57;1.50;;;;;;;12.35;100.00;100760.01;5132080;57;1139113;-68
2022/07/11 01:43:37;;;;;;;3.93;1.10;;;;;;;12.32;100.00;100753.14;5131084;57;1141155;-67
2022/07/11 01:48:43;;;;;;;4.20;1.20;;;;;;;12.28;100.00;100748.20;5142986;57;1139045;-67
2022/07/11 01:53:48;;;;;;;4.17;1.13;;;;;;;12.23;100.00;100749.88;5145142;57;1139345;-68
2022/07/11 01:58:54;;;;;;;7.47;1.43;;;;;;;12.18;100.00;100753.41;5063334;57;1136963;-67
2022/07/11 02:04:02;;;;;;;12.73;1.77;;;;;;;12.14;100.00;100747.14;5063142;57;1136942;-68
2022/07/11 02:09:07;;;;;;;4.70;1.10;;;;;;;12.08;100.00;100743.16;5063469;57;1143215;-67
2022/07/11 02:14:13;;;;;;;3.27;1.22;;;;;;;12.05;100.00;100743.44;5144947;57;1141257;-67
2022/07/11 02:19:19;;;;;;;5.80;1.07;;;;;;;11.99;100.00;100742.59;5155724;57;1141160;-67
2022/07/11 02:24:24;;;;;;;6.30;1.33;;;;;;;11.95;100.00;100747.28;5158742;57;1141175;-68
2022/07/11 02:29:31;;;;;;;4.77;1.70;;;;;;;11.90;100.00;100750.80;5160009;57;1141144;-67
2022/07/11 02:34:37;;;;;;;8.37;1.63;;;;;;;11.89;100.00;100753.57;5159932;57;1141115;-66
2022/07/11 02:39:43;;;;;;;6.10;0.90;;;;;;;11.85;100.00;100754.77;5159852;57;1141142;-67
2022/07/11 02:44:50;;;;;;;6.83;1.17;;;;;;;11.83;100.00;100755.37;5180979;56;1141114;-68
2022/07/11 02:49:55;;;;;;;6.27;1.37;;;;;;;11.81;100.00;100764.77;5180647;56;1141156;-67
2022/07/11 02:55:01;;;;;;;12.80;2.53;;;;;;;11.76;100.00;100764.30;5176713;56;1141159;-66
2022/07/11 03:00:12;;;;;;;1.50;0.87;;;;;;;11.70;100.00;100762.57;5165367;56;1143200;-67
2022/07/11 03:05:18;;;;;;;6.60;1.60;;;;;;;11.67;100.00;100770.75;5159959;56;1141254;-67
2022/07/11 03:10:24;;;;;;;10.57;1.53;;;;;;;11.63;100.00;100772.79;5160355;57;1141116;-66
2022/07/11 03:15:31;;;;;;;15.70;1.23;;;;;;;11.63;100.00;100782.06;5160354;57;1143200;-67
2022/07/11 03:20:36;;;;;;;5.00;1.37;;;;;;;11.65;100.00;100780.14;5159152;57;1143252;-68
2022/07/11 03:25:42;;;;;;;9.27;1.43;;;;;;;11.66;100.00;100780.98;5160419;57;1141114;-68
2022/07/11 03:30:48;;;;;;;6.50;2.00;;;;;;;11.66;100.00;100773.88;5160381;57;1141097;-67
2022/07/11 03:35:54;;;;;;;7.53;1.53;;;;;;;11.63;100.00;100779.41;5160475;57;1141238;-67
2022/07/11 03:41:00;;;;;;;7.03;1.27;;;;;;;11.62;100.00;100771.10;5160466;57;1141352;-67
2022/07/11 03:46:06;;;;;;;17.17;1.13;;;;;;;11.59;100.00;100770.89;5166720;56;1141111;-67
2022/07/11 03:51:11;;;;;;;3.17;1.23;;;;;;;11.61;100.00;100776.03;5246696;56;1143443;-67
2022/07/11 03:56:22;;;;;;;2.80;1.30;;;;;;;11.63;100.00;100769.66;5198065;56;1141139;-67
2022/07/11 04:01:25;;;;;;;5.27;1.27;;;;;;;11.72;100.00;100774.74;5160321;57;1141173;-67
2022/07/11 04:06:30;;;;;;;5.60;1.43;;;;;;;11.80;100.00;100783.43;5160403;57;1141439;-67
2022/07/11 04:11:36;;;;;;;4.67;1.77;;;;;;;11.86;100.00;100777.66;5159632;57;1141237;-66
2022/07/11 04:16:42;;;;;;;8.07;1.50;;;;;;;11.94;100.00;100776.56;5149981;57;1141103;-67
2022/07/11 04:21:48;;;;;;;3.77;1.60;;;;;;;11.99;100.00;100765.13;5151324;57;1141104;-67
2022/07/11 04:26:54;;;;;;;4.03;1.63;;;;;;;12.05;100.00;100773.92;5151262;57;1141150;-66
2022/07/11 04:32:00;;;;;;;13.27;2.10;;;;;;;12.09;100.00;100771.36;5151296;57;1141095;-67
2022/07/11 04:37:05;;;;;;;6.63;1.97;;;;;;;12.14;100.00;100775.83;5150879;57;1143209;-66
2022/07/11 04:42:11;;;;;;;5.70;1.57;;;;;;;12.18;100.00;100771.12;5150820;57;1141131;-66
2022/07/11 04:47:19;;;;;;;3.70;1.47;;;;;;;12.21;100.00;100781.50;5151113;57;1141188;-67
2022/07/11 04:52:26;;;;;;;9.40;2.03;;;;;;;12.32;100.00;100784.97;5151020;57;1141087;-67
2022/07/11 04:57:32;;;;;;;7.10;1.87;;;;;;;12.49;100.00;100786.25;5079613;57;1141285;-68
2022/07/11 05:02:38;;;;;;;11.20;1.40;;;;;;;12.65;100.00;100799.95;5063198;57;1141377;-67
2022/07/11 05:07:44;;;;;;;6.50;1.67;;;;;;;12.83;100.00;100801.56;5063163;57;1143265;-67
2022/07/11 05:12:50;;;;;;;17.47;2.40;;;;;;;12.95;100.00;100815.66;5074543;57;1141165;-67
2022/07/11 05:17:56;;;;;;;8.97;1.80;;;;;;;13.00;100.00;100809.45;5162763;57;1143205;-68
2022/07/11 05:23:02;;;;;;;6.13;2.33;;;;;;;13.04;100.00;100820.19;5164365;57;1141214;-67
2022/07/11 05:28:08;;;;;;;3.97;1.27;;;;;;;13.07;100.00;100816.44;5187342;56;1139099;-67
2022/07/11 05:33:14;;;;;;;9.30;1.70;;;;;;;13.00;100.00;100802.34;5161483;57;1139111;-67
2022/07/11 05:38:20;;;;;;;10.72;2.70;;;;;;;12.94;100.00;100800.20;5163886;57;1139062;-67
2022/07/11 05:43:26;;;;;;;4.00;1.67;;;;;;;12.89;100.00;100805.05;5226526;56;1141134;-67
2022/07/11 05:48:32;;;;;;;8.77;2.50;;;;;;;12.89;100.00;100807.70;5245740;56;1139119;-67
2022/07/11 05:53:38;;;;;;;11.20;2.67;;;;;;;12.88;100.00;100816.63;5181021;56;1139266;-67
2022/07/11 05:58:45;;;;;;;10.80;2.13;;;;;;;12.88;100.00;100817.95;5131441;57;1141110;-67
2022/07/11 06:03:51;;;;;;;10.23;2.50;;;;;;;12.95;100.00;100829.77;5226211;56;1141140;-67
2022/07/11 06:08:57;;;;;;;9.63;2.17;;;;;;;13.02;100.00;100830.94;5173885;56;1141141;-67
2022/07/11 06:14:05;;;;;;;8.90;2.10;;;;;;;13.13;100.00;100829.22;5159810;57;1139466;-67
2022/07/11 06:19:10;;;;;;;5.47;1.90;;;;;;;13.18;100.00;100829.20;5131056;57;1138960;-67
2022/07/11 06:24:17;;;;;;;16.90;2.90;;;;;;;13.31;100.00;100827.69;5130347;57;1139162;-67
2022/07/11 06:29:22;;;;;;;8.47;2.00;;;;;;;13.37;100.00;100822.72;5129461;57;1141076;-68
2022/07/11 06:34:28;;;;;;;12.87;3.30;;;;;;;13.58;100.00;100828.03;5130248;57;1139309;-66
2022/07/11 06:39:34;;;;;;;8.80;3.10;;;;;;;13.73;100.00;100834.70;5135466;56;1141086;-67
2022/07/11 06:44:40;;;;;;;11.97;2.77;;;;;;;13.98;100.00;100828.58;5166870;56;1139085;-67
2022/07/11 06:49:46;;;;;;;11.10;3.07;;;;;;;14.23;100.00;100836.09;5136808;56;1141072;-67
2022/07/11 06:54:52;;;;;;;7.77;2.83;;;;;;;14.50;100.00;100832.87;5157149;56;1138955;-68
2022/07/11 06:59:58;;;;;;;10.90;2.37;;;;;;;14.84;100.00;100826.66;5161159;56;1137040;-66
2022/07/11 07:05:05;;;;;;;7.03;2.00;;;;;;;15.30;100.00;100827.30;5172868;56;21543;-67
2022/07/11 07:10:11;;;;;;;5.37;2.08;;;;;;;15.60;100.00;100824.95;5108189;56;1137043;-67
2022/07/11 07:15:16;;;;;;;6.60;1.93;;;;;;;15.58;100.00;100828.28;5184447;56;1141215;-68
2022/07/11 07:20:22;;;;;;;5.53;1.50;;;;;;;15.69;100.00;100839.27;5222063;56;1141116;-68
2022/07/11 07:25:27;;;;;;;8.78;1.75;;;;;;;15.97;100.00;100829.49;5137012;56;1141084;-68
2022/07/11 07:30:34;;;;;;;3.17;1.67;;;;;;;15.98;100.00;100836.02;5209079;56;1141066;-68
2022/07/11 07:35:40;;;;;;;4.13;1.10;;;;;;;16.11;100.00;100833.86;5145010;56;1141196;-68
2022/07/11 07:40:45;;;;;;;3.10;1.03;;;;;;;16.16;100.00;100838.27;5162354;57;1141132;-67
2022/07/11 07:45:52;;;;;;;4.67;1.37;;;;;;;16.12;100.00;100842.21;5155360;57;1141380;-68
2022/07/11 07:50:57;;;;;;;8.03;1.73;;;;;;;16.33;100.00;100841.15;5162130;57;1141123;-68
2022/07/11 07:56:02;;;;;;;5.37;1.30;;;;;;;16.63;100.00;100830.19;5119402;57;1141173;-67
2022/07/11 08:06:34;;;;;;;5.73;1.07;;;;;;;16.51;100.00;100826.83;5074295;58;1141288;-67
2022/07/11 08:11:40;;;;;;;3.67;1.30;;;;;;;16.40;100.00;100827.05;5074944;56;1141115;-68
2022/07/11 08:16:47;;;;;;;4.30;0.80;;;;;;;16.41;100.00;100826.05;5135507;57;1141184;-68
2022/07/11 08:21:53;;;;;;;1.20;0.70;;;;;;;16.69;100.00;100800.19;5073849;57;1141127;-68
2022/07/11 08:26:58;;;;;;;1.12;0.70;;;;;;;17.21;100.00;100801.67;5122056;56;1141213;-68
2022/07/11 08:32:05;;;;;;;1.23;0.50;;;;;;;17.30;100.00;100807.91;5210064;56;1141626;-67
2022/07/11 08:37:11;;;;;;;2.73;0.57;;;;;;;17.19;100.00;100807.16;5251119;56;1140940;-67
2022/07/11 08:42:21;;;;;;;1.77;0.43;;;;;;;17.18;100.00;100812.17;5186562;56;1141078;-68
2022/07/11 08:47:28;;;;;;;0.30;0.30;;;;;;;17.25;97.39;100820.42;5111995;57;1141568;-66
2022/07/11 08:52:34;;;;;;;2.47;0.30;;;;;;;17.46;95.25;100821.40;5111889;57;1139134;-68
2022/07/11 08:57:40;;;;;;;5.30;0.70;;;;;;;17.74;95.35;100814.93;5180650;56;1139317;-66
2022/07/11 09:02:48;;;;;;;2.83;0.40;;;;;;;17.96;93.78;100815.40;5180146;56;1138914;-68
2022/07/11 09:07:54;;;;;;;0.63;0.20;;;;;;;18.12;92.98;100819.50;5149067;56;1138966;-67
2022/07/11 09:13:06;;;;;;;5.50;0.40;;;;;;;18.20;90.36;100838.26;5176999;56;1139275;-67
2022/07/11 09:18:38;;;;;;;1.00;0.50;;;;;;;17.95;92.17;100839.14;5142146;56;1139036;-67
2022/07/11 09:29:18;;;;;;;0.83;0.50;;;;;;;17.25;95.74;100835.12;5067595;57;1136977;-67
2022/07/11 09:34:26;;;;;;;0.62;0.30;;;;;;;17.50;100.00;100829.46;5067345;57;1137264;-68
2022/07/11 09:39:33;;;;;;;0.50;0.10;;;;;;;17.86;100.00;100827.07;5067371;57;1139086;-68
2022/07/11 09:44:38;;;;;;;0.10;0.10;;;;;;;18.19;95.34;100825.37;5135017;56;1139053;-68
2022/07/11 09:49:44;;;;;;;0.10;0.10;;;;;;;18.56;93.11;100825.02;5150968;56;1137037;-66
2022/07/11 09:55:05;;;;;;;0.10;0.10;;;;;;;18.92;89.66;100825.64;5128070;57;1136890;-67
2022/07/11 10:00:13;;;;;;;0.10;0.10;;;;;;;19.33;88.33;100818.94;5061825;57;1136892;-67
2022/07/11 10:05:19;;;;;;;4.30;0.28;;;;;;;19.74;86.54;100819.75;5056836;58;1137217;-68
2022/07/11 10:10:26;;;;;;;3.10;0.35;;;;;;;20.00;81.50;100824.41;5067324;57;1136950;-67
2022/07/11 10:15:35;;;;;;;4.25;0.20;;;;;;;19.45;66.00;100832.34;5037691;58;1137279;-67
2022/07/11 10:21:04;;;;;;;3.53;0.10;;;;;;;18.93;70.55;100835.86;5210995;56;1134962;-67
2022/07/11 10:26:39;;;;;;;1.70;0.10;;;;;;;18.66;73.08;100835.61;5228614;56;1139032;-67
2022/07/11 10:32:04;;;;;;;0.20;0.17;;;;;;;18.96;74.76;100830.14;5228552;56;1139068;-68
2022/07/11 10:37:11;;;;;;;0.98;0.28;;;;;;;19.65;76.69;100830.18;5228517;56;1139311;-67
2022/07/11 10:42:24;;;;;;;0.23;0.13;;;;;;;20.28;75.41;100827.98;5228687;56;1139285;-68
2022/07/11 10:47:44;;;;;;;0.37;0.30;;;;;;;20.76;75.07;100827.44;5235125;56;1139033;-67
2022/07/11 10:52:51;;;;;;;0.10;0.10;;;;;;;20.92;70.06;100823.30;5249456;56;1139155;-67
2022/07/11 10:58:09;;;;;;;1.10;0.28;;;;;;;21.21;66.33;100824.80;5171720;56;1138649;-67
2022/07/11 11:03:18;;;;;;;1.27;0.45;;;;;;;21.17;68.12;100823.95;5075941;58;1139030;-71
2022/07/11 11:08:43;;;;;;;2.30;0.20;;;;;;;21.17;68.12;100823.95;5204768;56;1139090;-68
2022/07/11 11:13:45;;;;;;;0.75;0.30;;;;;;;21.25;66.40;100822.05;5229323;56;1138943;-67
2022/07/11 11:18:51;;;;;;;5.28;0.20;;;;;;;21.06;66.44;100831.44;5235847;56;1139015;-68
2022/07/11 11:24:03;;;;;;;1.02;0.20;;;;;;;20.68;64.48;100839.06;5177683;56;1139137;-67
2022/07/11 11:29:09;;;;;;;0.10;0.10;;;;;;;21.05;67.15;100827.58;5021701;58;1139317;-67
2022/07/11 11:34:15;;;;;;;0.53;0.20;;;;;;;21.49;62.85;100832.28;5069007;57;1139105;-68
2022/07/11 11:39:30;;;;;;;0.37;0.10;;;;;;;21.65;59.36;100826.75;5016121;58;1136953;-67
2022/07/11 11:44:51;;;;;;;1.95;0.50;;;;;;;21.79;60.03;100831.83;5029772;58;1137102;-67
2022/07/11 11:49:57;;;;;;;3.12;0.25;;;;;;;21.91;56.55;100827.65;4991048;58;1136942;-67
2022/07/11 11:55:04;;;;;;;1.82;0.23;;;;;;;22.24;59.02;100828.14;4968877;58;1136927;-68
2022/07/11 12:00:26;;;;;;;2.83;0.62;;;;;;;22.17;59.09;100854.14;4979255;59;1137076;-66
2022/07/11 12:05:32;;;;;;;0.20;0.20;;;;;;;21.60;65.60;100875.74;5155540;56;1136968;-68
2022/07/11 12:10:38;;;;;;;0.70;0.20;;;;;;;20.94;68.67;100881.24;5149618;56;1137056;-67
2022/07/11 12:21:15;;;;;;;2.45;0.30;;;;;;;20.20;73.12;100888.44;5037171;58;1195749;-68
2022/07/11 12:26:21;;;;;;;0.73;0.27;;;;;;;20.32;75.92;100878.98;4952595;59;1139132;-68
2022/07/11 12:31:26;;;;;;;1.67;0.30;;;;;;;20.46;76.13;100881.02;5067756;58;1139036;-69
2022/07/11 12:36:35;;;;;;;0.40;0.40;;;;;;;20.61;75.62;100872.55;5067188;58;1138981;-69
2022/07/11 12:41:41;;;;;;;0.42;0.20;;;;;;;21.02;74.92;100865.58;4925599;58;1139109;-69
2022/07/11 12:46:47;;;;;;;0.37;0.10;;;;;;;21.32;72.72;100856.64;5044868;58;1139037;-68
2022/07/11 12:51:54;;;;;;;0.17;0.10;;;;;;;21.67;71.80;100856.52;4977197;59;1139092;-69
2022/07/11 12:57:06;;;;;;;2.30;0.40;;;;;;;21.78;66.86;100847.14;4969427;59;1139302;-66
2022/07/11 13:02:13;;;;;;;2.60;0.30;;;;;;;21.79;66.93;100852.86;4949508;59;1139083;-68
2022/07/11 13:13:00;;;;;;;0.72;0.33;;;;;;;21.60;68.49;100845.30;5049875;58;1138997;-68
2022/07/11 13:18:05;;;;;;;0.20;0.20;;;;;;;21.55;67.52;100850.37;5130936;57;1139246;-68
2022/07/11 13:23:11;;;;;;;2.17;0.13;;;;;;;21.50;67.21;100852.80;5174270;56;1139213;-67
2022/07/11 13:28:19;;;;;;;8.63;0.17;;;;;;;21.13;64.21;100857.59;5250020;56;1139092;-67
2022/07/11 13:33:25;;;;;;;0.93;0.75;;;;;;;20.56;63.47;100858.78;5233756;56;1139112;-68
2022/07/11 13:38:31;;;;;;;0.37;0.37;;;;;;;20.22;63.55;100868.45;5174735;56;1139032;-68
2022/07/11 13:43:37;;;;;;;13.05;9.40;;;;;;;20.17;66.59;100864.09;5162886;56;1139141;-67
2022/07/11 13:48:42;;;;;;;1.62;1.57;;;;;;;20.49;68.41;100862.33;5214511;56;1141170;-68
2022/07/11 13:53:48;;;;;;;2.12;1.00;;;;;;;21.03;69.16;100869.44;5243974;56;1139049;-68
2022/07/11 13:58:54;;;;;;;5.60;1.55;;;;;;;21.26;65.62;100865.42;5136728;57;1139080;-68
2022/07/11 14:03:59;;;;;;;0.88;0.88;;;;;;;21.38;65.24;100859.13;5091841;57;1138947;-67
2022/07/11 14:09:05;;;;;;;0.53;0.50;;;;;;;21.31;64.93;100859.52;5178862;56;1139142;-68
2022/07/11 14:14:11;;;;;;;2.08;0.30;;;;;;;21.34;66.54;100859.16;5162556;56;1139110;-67
2022/07/11 14:19:17;;;;;;;1.07;0.35;;;;;;;21.02;66.17;100864.23;5179032;56;1139066;-66
2022/07/11 14:24:24;;;;;;;0.57;0.30;;;;;;;20.71;68.01;100870.97;5162183;56;1139065;-67
2022/07/11 14:29:31;;;;;;;0.85;0.30;;;;;;;20.94;69.35;100875.02;5150000;56;1139041;-66
2022/07/11 14:34:37;;;;;;;2.15;0.20;;;;;;;21.12;70.06;100884.16;5146522;56;1139069;-68
2022/07/11 14:39:43;;;;;;;0.65;0.45;;;;;;;21.21;67.41;100900.63;5112496;57;1139028;-67
2022/07/11 14:44:49;;;;;;;3.12;0.88;;;;;;;21.15;68.57;100920.12;5111040;57;1139033;-67
2022/07/11 14:49:56;;;;;;;12.28;8.00;;;;;;;21.10;67.50;100915.27;5112261;56;1139056;-67
2022/07/11 14:55:02;;;;;;;1.70;0.62;;;;;;;20.98;69.27;100904.08;5116310;57;1138999;-67
2022/07/11 15:00:10;;;;;;;1.15;0.50;;;;;;;20.90;70.32;100931.03;5116588;57;1136981;-67
2022/07/11 15:05:16;;;;;;;4.37;0.30;;;;;;;20.93;70.60;100912.37;5115197;57;1137168;-68
2022/07/11 15:15:45;;;;;;;3.02;0.35;;;;;;;21.02;67.65;100919.36;5083818;57;1136943;-68
2022/07/11 15:20:51;;;;;;;0.95;0.40;;;;;;;20.92;66.76;100918.25;5146297;56;1136985;-67
2022/07/11 15:25:57;;;;;;;1.82;1.27;;;;;;;20.81;67.17;100911.91;5122773;56;1137001;-68
2022/07/11 15:31:02;;;;;;;2.20;0.80;;;;;;;20.75;68.43;100934.63;5137418;57;1137107;-67
2022/07/11 15:36:08;;;;;;;1.10;1.00;;;;;;;20.67;70.49;100928.77;5086580;57;1136466;-68
2022/07/11 15:41:16;;;;;;;0.40;0.40;;;;;;;20.48;71.68;100924.64;5083567;57;1137064;-67
2022/07/11 15:46:22;;;;;;;2.17;0.35;;;;;;;20.36;72.80;100925.52;5170559;56;1136901;-67
2022/07/11 15:51:28;;;;;;;0.55;0.55;;;;;;;20.31;71.75;100919.82;5180342;56;1137004;-68
2022/07/11 15:56:35;;;;;;;1.22;0.90;;;;;;;20.21;71.76;100919.16;5173052;56;1137209;-67
2022/07/11 16:01:41;;;;;;;2.58;0.40;;;;;;;20.14;72.55;100925.40;5174805;56;1137007;-67
2022/07/11 16:06:47;;;;;;;0.60;0.50;;;;;;;20.09;72.84;100935.80;5180833;56;1134820;-67
2022/07/11 16:11:53;;;;;;;1.37;0.35;;;;;;;20.07;73.67;100933.28;5174902;56;1134874;-67
2022/07/11 16:16:59;;;;;;;0.60;0.36;;;;;;;20.10;72.72;100938.32;5180403;56;1139009;-68
2022/07/11 16:22:06;;;;;;;0.50;0.50;;;;;;;20.05;73.79;100945.20;5163851;57;1139304;-67
2022/07/11 16:27:11;;;;;;;1.07;0.20;;;;;;;19.98;73.90;100953.11;5141062;56;1139112;-67
2022/07/11 16:32:18;;;;;;;2.33;0.27;;;;;;;19.89;73.47;100957.62;5191411;56;1139068;-67
2022/07/11 16:37:24;;;;;;;2.58;0.90;;;;;;;19.83;73.50;100956.14;5195535;56;1139043;-68
2022/07/11 16:47:52;;;;;;;;;;;;;;;19.87;74.75;100952.09;5194167;56;1139048;-68
2022/07/11 16:52:59;;;;;;;2.22;1.85;;;;;;;19.91;74.78;100955.63;5202408;56;976365;-68
2022/07/11 16:58:05;;;;;;;1.02;0.90;;;;;;;19.85;74.95;100958.16;5177523;56;1136996;-68
2022/07/11 17:03:11;;;;;;;1.25;0.50;;;;;;;19.85;75.45;100962.19;5192885;56;1139050;-68
2022/07/11 17:13:40;;;;;;;0.98;0.98;;;;;;;19.59;78.26;100977.92;5202876;56;1139236;-68
2022/07/11 17:18:46;;;;;;;1.25;1.20;;;;;;;19.63;78.44;100975.75;5189968;56;1139077;-68
2022/07/11 17:23:54;;;;;;;6.10;3.98;;;;;;;19.70;78.13;100978.63;5183575;56;1139064;-68
2022/07/11 17:29:00;;;;;;;4.90;3.35;;;;;;;19.80;78.13;100990.87;5155417;56;1139059;-68
2022/07/11 17:34:06;;;;;;;0.95;0.60;;;;;;;19.87;77.83;100977.59;5156477;56;1139127;-68
2022/07/11 17:39:12;;;;;;;2.87;1.77;;;;;;;19.83;78.22;100988.36;5180397;56;1139299;-68
2022/07/11 17:44:18;;;;;;;1.22;1.17;;;;;;;19.72;78.24;100992.19;5159115;56;1139050;-67
2022/07/11 17:49:24;;;;;;;4.60;3.83;;;;;;;19.61;79.26;100997.39;5173079;56;1139038;-67
2022/07/11 17:54:30;;;;;;;0.70;0.70;;;;;;;19.57;80.76;100997.88;5178706;56;1139086;-68
2022/07/11 17:59:37;;;;;;;2.83;1.32;;;;;;;19.63;79.98;100991.86;5150963;56;1139116;-66
2022/07/11 18:04:43;;;;;;;0.93;0.70;;;;;;;19.74;78.79;100999.57;5138897;57;1139428;-66
2022/07/11 18:09:48;;;;;;;1.52;1.40;;;;;;;19.83;78.10;100996.41;5144578;57;1139253;-66
2022/07/11 18:14:56;;;;;;;2.12;1.92;;;;;;;19.88;77.77;100992.19;5160484;56;1138956;-66
2022/07/11 18:20:06;;;;;;;1.32;0.90;;;;;;;19.92;76.94;101004.78;5150772;56;1139053;-66
2022/07/11 18:25:13;;;;;;;0.88;0.88;;;;;;;19.82;76.68;101006.81;5156932;56;1139121;-66
2022/07/11 18:30:19;;;;;;;3.27;1.20;;;;;;;19.78;76.28;101006.80;5163242;56;1139110;-66
2022/07/11 18:35:24;;;;;;;1.32;1.22;;;;;;;19.75;76.44;101010.64;5163377;56;1139037;-66
2022/07/11 18:45:54;;;;;;;3.90;1.30;;;;;;;19.59;77.11;101011.97;5166710;56;1136974;-66
2022/07/11 18:50:59;;;;;;;1.10;1.10;;;;;;;19.60;77.31;101019.85;5189840;56;1137021;-66
2022/07/11 18:56:05;;;;;;;1.35;1.00;;;;;;;19.64;77.82;101023.89;5119977;56;1137003;-66
2022/07/11 19:01:10;;;;;;;2.12;0.80;;;;;;;19.65;77.23;101030.10;5079831;58;1137231;-66
2022/07/11 19:06:16;;;;;;;3.10;1.02;;;;;;;19.69;77.08;101035.98;5142937;57;1136893;-67
2022/07/11 19:11:22;;;;;;;0.82;0.70;;;;;;;19.67;77.07;101040.17;5163596;57;1136960;-67
2022/07/11 19:16:28;;;;;;;2.17;0.60;;;;;;;19.59;77.70;101036.12;5239577;56;1136921;-66
2022/07/11 19:21:34;;;;;;;3.62;0.80;;;;;;;19.45;77.70;101039.41;5250519;56;1137522;-66
2022/07/11 19:26:40;;;;;;;4.12;0.85;;;;;;;19.26;78.09;101044.04;5250048;56;1136923;-66
2022/07/11 19:31:46;;;;;;;2.12;0.75;;;;;;;19.13;78.63;101049.02;5249411;56;1137016;-66
2022/07/11 19:36:51;;;;;;;0.98;0.88;;;;;;;19.07;79.31;101051.52;5249575;56;1137360;-66
2022/07/11 19:41:57;;;;;;;4.90;0.90;;;;;;;19.01;79.25;101056.17;5249399;56;1137199;-66
2022/07/11 19:47:03;;;;;;;3.08;0.93;;;;;;;18.91;79.71;101055.81;5249385;56;1137084;-67
2022/07/11 19:52:09;;;;;;;1.52;1.05;;;;;;;18.95;80.49;101063.84;5241043;56;1137075;-66
2022/07/11 19:57:24;;;;;;;2.27;1.20;;;;;;;18.97;80.84;101068.55;5142000;56;1137044;-66
2022/07/11 20:02:30;;;;;;;8.75;0.93;;;;;;;18.96;80.86;101066.03;5119058;57;1137243;-68
2022/07/11 20:07:36;;;;;;;5.33;1.63;;;;;;;18.80;80.70;101070.80;5213434;56;1134968;-66
2022/07/11 20:12:42;;;;;;;4.55;1.75;;;;;;;18.74;81.34;101071.95;5082979;56;1134943;-66
2022/07/11 20:17:48;;;;;;;12.00;4.70;;;;;;;18.70;81.57;101067.41;5108807;57;1139017;-67
2022/07/11 20:22:54;;;;;;;7.73;4.73;;;;;;;18.50;81.50;101070.75;5134504;57;1141112;-66
2022/07/11 20:28:00;;;;;;;4.93;2.40;;;;;;;18.24;81.32;101088.13;5134798;56;1139004;-66
2022/07/11 20:33:05;;;;;;;2.22;2.02;;;;;;;17.97;82.22;101082.88;5156389;57;1139001;-66
2022/07/11 20:38:11;;;;;;;7.10;2.60;;;;;;;17.74;82.97;101082.47;5073148;58;1139022;-67
2022/07/11 20:43:17;;;;;;;7.37;3.27;;;;;;;17.63;83.53;101093.86;5069896;58;1139119;-67
2022/07/11 20:48:24;;;;;;;8.83;3.02;;;;;;;17.76;84.46;101089.01;5073014;58;1139042;-67
2022/07/11 20:53:30;;;;;;;6.85;3.30;;;;;;;17.83;83.47;101105.66;5071160;58;1139000;-66
2022/07/11 20:58:36;;;;;;;3.12;1.95;;;;;;;17.62;82.39;101109.06;5074365;58;1139046;-67
2022/07/11 21:03:42;;;;;;;2.72;1.80;;;;;;;17.36;82.51;101103.59;5066684;57;1139188;-67
2022/07/11 21:08:47;;;;;;;6.13;2.00;;;;;;;17.14;82.87;101106.14;5136210;57;1139138;-66
2022/07/11 21:13:56;;;;;;;5.30;2.40;;;;;;;16.90;83.20;101106.31;5078874;58;1139234;-67
2022/07/11 21:19:05;;;;;;;3.97;2.10;;;;;;;16.70;83.52;101110.85;5079145;58;1139131;-66
2022/07/11 21:24:10;;;;;;;4.07;2.40;;;;;;;16.57;84.08;101112.47;5077979;58;1139029;-66
2022/07/11 21:29:16;;;;;;;3.33;2.23;;;;;;;16.57;84.46;101110.29;5081921;57;1139031;-66
2022/07/11 21:34:22;;;;;;;5.57;2.63;;;;;;;16.51;84.10;101116.54;5107987;56;1139242;-66
2022/07/11 21:39:27;;;;;;;4.33;3.23;;;;;;;16.45;84.52;101121.13;5117475;56;1139199;-66
2022/07/11 21:44:33;;;;;;;6.57;2.70;;;;;;;16.60;84.69;101110.85;5133481;56;1139280;-66
2022/07/11 21:49:39;;;;;;;2.37;1.73;;;;;;;16.75;84.66;101117.95;5114997;56;1139032;-66
2022/07/11 21:54:45;;;;;;;2.53;2.03;;;;;;;16.86;83.70;101115.95;5142184;57;1139047;-66
2022/07/11 21:59:51;;;;;;;2.67;2.47;;;;;;;16.67;81.88;101108.47;5192940;56;1139250;-66
2022/07/11 22:04:56;;;;;;;6.20;2.33;;;;;;;16.39;81.59;101108.34;5172055;56;1138994;-66
2022/07/11 22:10:03;;;;;;;6.40;3.33;;;;;;;16.30;81.98;101112.36;5159988;57;1139130;-67
2022/07/11 22:15:09;;;;;;;4.57;2.53;;;;;;;16.16;82.29;101111.81;5159882;57;1139083;-66
2022/07/11 22:20:15;;;;;;;4.03;2.37;;;;;;;16.18;82.75;101117.86;5159992;57;1139158;-66
2022/07/11 22:25:21;;;;;;;2.63;1.73;;;;;;;16.33;83.14;101110.27;5159535;56;1139039;-66
2022/07/11 22:30:26;;;;;;;6.03;3.67;;;;;;;16.43;83.04;101115.58;5165797;56;1138998;-67
2022/07/11 22:35:32;;;;;;;2.73;2.23;;;;;;;16.52;82.83;101119.56;5168342;56;1139031;-66
2022/07/11 22:40:39;;;;;;;4.43;2.30;;;;;;;16.50;82.42;101114.85;5174696;56;1139008;-66
2022/07/11 22:45:46;;;;;;;4.10;1.67;;;;;;;16.49;82.34;101112.36;5185964;56;1139050;-66
2022/07/11 22:50:51;;;;;;;3.03;1.27;;;;;;;16.46;82.22;101109.96;5216652;56;1139024;-66
2022/07/11 22:55:57;;;;;;;2.60;0.90;;;;;;;16.41;81.82;101103.70;5171318;56;1138988;-66
2022/07/11 23:01:03;;;;;;;5.63;1.40;;;;;;;16.11;80.47;101110.53;5199692;56;1138951;-66
2022/07/11 23:06:09;;;;;;;3.10;1.20;;;;;;;16.00;81.52;101110.68;5216421;56;1139092;-66
2022/07/11 23:11:15;;;;;;;1.63;1.17;;;;;;;16.08;82.38;101105.47;5205602;56;1139095;-66
2022/07/11 23:16:20;;;;;;;2.73;1.00;;;;;;;16.14;82.45;101107.09;5166121;56;1139098;-66
2022/07/11 23:21:26;;;;;;;3.07;0.90;;;;;;;16.16;82.17;101108.30;5153446;56;1139129;-67
2022/07/11 23:26:32;;;;;;;1.30;1.20;;;;;;;16.15;82.09;101102.61;5153619;56;1139039;-66
2022/07/11 23:31:38;;;;;;;1.37;1.00;;;;;;;16.09;81.84;101104.00;5147082;57;1139637;-66
2022/07/11 23:36:43;;;;;;;2.70;1.40;;;;;;;15.91;81.13;101099.48;5097195;57;1139219;-66
2022/07/11 23:41:49;;;;;;;3.27;1.67;;;;;;;15.82;81.63;101104.69;5067771;58;1137117;-66
2022/07/11 23:46:54;;;;;;;3.10;1.57;;;;;;;15.80;81.95;101101.80;5088362;57;1136777;-66
2022/07/11 23:52:00;;;;;;;1.63;1.20;;;;;;;15.83;82.04;101099.71;5214130;56;1137161;-66